sensor_id;sensor_type;location;lat;lon;timestamp;P1;durP1;ratioP1;P2;durP2;ratioP2
22429;SDS011;11382;48.086;11.632;2022-12-18T00:01:52;64.88;;;28.95;;
22429;SDS011;11382;48.086;11.632;2022-12-18T00:04:21;60.88;;;27.65;;
22429;SDS011;11382;48.086;11.632;2022-12-18T00:06:51;62.85;;;29.35;;
22429;SDS011;11382;48.086;11.632;2022-12-18T00:09:19;60.10;;;27.25;;
22429;SDS011;11382;48.086;11.632;2022-12-18T00:11:51;62.40;;;28.10;;
22429;SDS011;11382;48.086;11.632;2022-12-18T00:14:19;63.97;;;27.95;;
22429;SDS011;11382;48.086;11.632;2022-12-18T00:16:47;55.35;;;25.65;;
22429;SDS011;11382;48.086;11.632;2022-12-18T00:19:16;69.85;;;29.00;;
22429;SDS011;11382;48.086;11.632;2022-12-18T00:21:44;66.68;;;29.40;;
22429;SDS011;11382;48.086;11.632;2022-12-18T00:24:12;59.88;;;27.17;;
22429;SDS011;11382;48.086;11.632;2022-12-18T00:26:42;63.05;;;28.63;;
22429;SDS011;11382;48.086;11.632;2022-12-18T00:29:12;69.38;;;29.02;;
22429;SDS011;11382;48.086;11.632;2022-12-18T00:31:42;61.50;;;28.95;;
22429;SDS011;11382;48.086;11.632;2022-12-18T00:34:10;60.78;;;27.02;;
22429;SDS011;11382;48.086;11.632;2022-12-18T00:36:39;63.33;;;28.13;;
22429;SDS011;11382;48.086;11.632;2022-12-18T00:39:08;63.00;;;27.20;;
22429;SDS011;11382;48.086;11.632;2022-12-18T00:41:37;62.42;;;27.00;;
22429;SDS011;11382;48.086;11.632;2022-12-18T00:44:25;59.67;;;26.35;;
22429;SDS011;11382;48.086;11.632;2022-12-18T00:46:53;58.60;;;27.90;;
22429;SDS011;11382;48.086;11.632;2022-12-18T00:49:21;56.25;;;25.73;;
22429;SDS011;11382;48.086;11.632;2022-12-18T00:51:50;61.35;;;26.63;;
22429;SDS011;11382;48.086;11.632;2022-12-18T00:54:18;60.53;;;26.70;;
22429;SDS011;11382;48.086;11.632;2022-12-18T00:56:46;64.38;;;28.95;;
22429;SDS011;11382;48.086;11.632;2022-12-18T00:59:16;61.40;;;28.08;;
22429;SDS011;11382;48.086;11.632;2022-12-18T01:01:46;61.88;;;28.58;;
22429;SDS011;11382;48.086;11.632;2022-12-18T01:04:14;60.38;;;28.23;;
22429;SDS011;11382;48.086;11.632;2022-12-18T01:06:44;61.67;;;27.65;;
22429;SDS011;11382;48.086;11.632;2022-12-18T01:09:12;63.78;;;27.15;;
22429;SDS011;11382;48.086;11.632;2022-12-18T01:11:40;60.45;;;26.27;;
22429;SDS011;11382;48.086;11.632;2022-12-18T01:14:09;60.55;;;26.30;;
22429;SDS011;11382;48.086;11.632;2022-12-18T01:16:37;59.17;;;26.55;;
22429;SDS011;11382;48.086;11.632;2022-12-18T01:19:07;59.30;;;26.67;;
22429;SDS011;11382;48.086;11.632;2022-12-18T01:21:35;63.88;;;27.17;;
22429;SDS011;11382;48.086;11.632;2022-12-18T01:24:03;66.50;;;28.88;;
22429;SDS011;11382;48.086;11.632;2022-12-18T01:26:32;59.97;;;27.05;;
22429;SDS011;11382;48.086;11.632;2022-12-18T01:29:00;61.22;;;27.73;;
22429;SDS011;11382;48.086;11.632;2022-12-18T01:31:29;56.78;;;26.02;;
22429;SDS011;11382;48.086;11.632;2022-12-18T01:34:01;56.92;;;27.52;;
22429;SDS011;11382;48.086;11.632;2022-12-18T01:36:31;61.28;;;28.40;;
22429;SDS011;11382;48.086;11.632;2022-12-18T01:39:00;61.58;;;27.80;;
22429;SDS011;11382;48.086;11.632;2022-12-18T01:41:30;60.58;;;27.38;;
22429;SDS011;11382;48.086;11.632;2022-12-18T01:47:21;67.78;;;29.92;;
22429;SDS011;11382;48.086;11.632;2022-12-18T01:49:52;55.88;;;24.33;;
22429;SDS011;11382;48.086;11.632;2022-12-18T01:52:23;67.93;;;29.13;;
22429;SDS011;11382;48.086;11.632;2022-12-18T01:54:53;66.87;;;29.83;;
22429;SDS011;11382;48.086;11.632;2022-12-18T01:57:24;66.85;;;29.63;;
22429;SDS011;11382;48.086;11.632;2022-12-18T01:59:54;66.40;;;29.88;;
22429;SDS011;11382;48.086;11.632;2022-12-18T02:02:38;68.63;;;28.67;;
22429;SDS011;11382;48.086;11.632;2022-12-18T02:05:07;65.75;;;31.23;;
22429;SDS011;11382;48.086;11.632;2022-12-18T02:07:42;71.40;;;29.83;;
22429;SDS011;11382;48.086;11.632;2022-12-18T02:10:20;75.20;;;30.97;;
22429;SDS011;11382;48.086;11.632;2022-12-18T02:12:55;72.57;;;29.98;;
22429;SDS011;11382;48.086;11.632;2022-12-18T02:15:31;72.07;;;31.15;;
22429;SDS011;11382;48.086;11.632;2022-12-18T02:18:05;68.65;;;30.00;;
22429;SDS011;11382;48.086;11.632;2022-12-18T02:20:36;69.72;;;30.48;;
22429;SDS011;11382;48.086;11.632;2022-12-18T02:24:24;70.85;;;30.88;;
22429;SDS011;11382;48.086;11.632;2022-12-18T02:27:04;76.25;;;31.15;;
22429;SDS011;11382;48.086;11.632;2022-12-18T02:29:36;73.00;;;32.05;;
22429;SDS011;11382;48.086;11.632;2022-12-18T02:32:08;68.78;;;30.13;;
22429;SDS011;11382;48.086;11.632;2022-12-18T02:34:43;70.43;;;31.48;;
22429;SDS011;11382;48.086;11.632;2022-12-18T02:37:17;69.05;;;32.35;;
22429;SDS011;11382;48.086;11.632;2022-12-18T02:39:56;72.53;;;31.95;;
22429;SDS011;11382;48.086;11.632;2022-12-18T02:42:40;69.28;;;33.28;;
22429;SDS011;11382;48.086;11.632;2022-12-18T02:45:12;77.10;;;31.65;;
22429;SDS011;11382;48.086;11.632;2022-12-18T02:47:42;76.85;;;32.65;;
22429;SDS011;11382;48.086;11.632;2022-12-18T02:50:18;72.72;;;31.35;;
22429;SDS011;11382;48.086;11.632;2022-12-18T02:53:10;80.78;;;33.17;;
22429;SDS011;11382;48.086;11.632;2022-12-18T02:56:03;77.53;;;33.20;;
22429;SDS011;11382;48.086;11.632;2022-12-18T02:58:55;76.50;;;32.50;;
22429;SDS011;11382;48.086;11.632;2022-12-18T03:01:52;71.00;;;31.60;;
22429;SDS011;11382;48.086;11.632;2022-12-18T03:04:26;74.65;;;32.53;;
22429;SDS011;11382;48.086;11.632;2022-12-18T03:07:08;68.95;;;31.75;;
22429;SDS011;11382;48.086;11.632;2022-12-18T03:09:43;69.38;;;30.33;;
22429;SDS011;11382;48.086;11.632;2022-12-18T03:12:16;72.03;;;32.33;;
22429;SDS011;11382;48.086;11.632;2022-12-18T03:15:01;66.80;;;29.40;;
22429;SDS011;11382;48.086;11.632;2022-12-18T03:17:33;68.40;;;30.55;;
22429;SDS011;11382;48.086;11.632;2022-12-18T03:20:07;76.60;;;32.15;;
22429;SDS011;11382;48.086;11.632;2022-12-18T03:22:41;70.65;;;32.22;;
22429;SDS011;11382;48.086;11.632;2022-12-18T03:25:13;68.63;;;30.90;;
22429;SDS011;11382;48.086;11.632;2022-12-18T03:27:46;68.68;;;30.88;;
22429;SDS011;11382;48.086;11.632;2022-12-18T03:30:27;72.88;;;31.67;;
22429;SDS011;11382;48.086;11.632;2022-12-18T03:33:05;72.43;;;31.60;;
22429;SDS011;11382;48.086;11.632;2022-12-18T03:35:43;69.63;;;31.45;;
22429;SDS011;11382;48.086;11.632;2022-12-18T03:40:51;70.20;;;32.72;;
22429;SDS011;11382;48.086;11.632;2022-12-18T03:43:31;70.32;;;31.90;;
22429;SDS011;11382;48.086;11.632;2022-12-18T03:46:10;70.78;;;30.15;;
22429;SDS011;11382;48.086;11.632;2022-12-18T03:48:44;67.85;;;30.02;;
22429;SDS011;11382;48.086;11.632;2022-12-18T03:51:20;71.38;;;29.80;;
22429;SDS011;11382;48.086;11.632;2022-12-18T03:54:07;69.72;;;31.15;;
22429;SDS011;11382;48.086;11.632;2022-12-18T03:56:48;68.78;;;30.63;;
22429;SDS011;11382;48.086;11.632;2022-12-18T03:59:27;63.42;;;28.55;;
22429;SDS011;11382;48.086;11.632;2022-12-18T04:02:06;67.25;;;31.35;;
22429;SDS011;11382;48.086;11.632;2022-12-18T04:04:48;68.57;;;29.70;;
22429;SDS011;11382;48.086;11.632;2022-12-18T04:07:25;67.30;;;30.90;;
22429;SDS011;11382;48.086;11.632;2022-12-18T04:10:08;69.85;;;29.92;;
22429;SDS011;11382;48.086;11.632;2022-12-18T04:12:41;62.33;;;28.48;;
22429;SDS011;11382;48.086;11.632;2022-12-18T04:15:15;69.55;;;31.05;;
22429;SDS011;11382;48.086;11.632;2022-12-18T04:17:48;64.40;;;29.05;;
22429;SDS011;11382;48.086;11.632;2022-12-18T04:20:23;62.78;;;28.48;;
22429;SDS011;11382;48.086;11.632;2022-12-18T04:22:58;64.65;;;28.80;;
22429;SDS011;11382;48.086;11.632;2022-12-18T04:25:26;62.15;;;28.15;;
22429;SDS011;11382;48.086;11.632;2022-12-18T04:28:04;61.65;;;28.92;;
22429;SDS011;11382;48.086;11.632;2022-12-18T04:30:34;60.08;;;28.90;;
22429;SDS011;11382;48.086;11.632;2022-12-18T04:33:11;60.30;;;28.30;;
22429;SDS011;11382;48.086;11.632;2022-12-18T04:35:41;54.97;;;26.05;;
22429;SDS011;11382;48.086;11.632;2022-12-18T04:38:16;53.75;;;26.23;;
22429;SDS011;11382;48.086;11.632;2022-12-18T04:40:53;62.47;;;25.98;;
22429;SDS011;11382;48.086;11.632;2022-12-18T04:43:25;62.23;;;26.57;;
22429;SDS011;11382;48.086;11.632;2022-12-18T04:46:03;55.85;;;26.05;;
22429;SDS011;11382;48.086;11.632;2022-12-18T04:48:45;44.40;;;20.20;;
22429;SDS011;11382;48.086;11.632;2022-12-18T04:51:34;55.55;;;26.35;;
22429;SDS011;11382;48.086;11.632;2022-12-18T04:54:04;53.47;;;25.15;;
22429;SDS011;11382;48.086;11.632;2022-12-18T04:56:52;52.92;;;25.02;;
22429;SDS011;11382;48.086;11.632;2022-12-18T04:59:33;59.38;;;26.20;;
22429;SDS011;11382;48.086;11.632;2022-12-18T05:02:03;56.10;;;25.63;;
22429;SDS011;11382;48.086;11.632;2022-12-18T05:04:33;52.92;;;24.75;;
22429;SDS011;11382;48.086;11.632;2022-12-18T05:07:09;56.33;;;24.65;;
22429;SDS011;11382;48.086;11.632;2022-12-18T05:09:41;50.60;;;24.75;;
22429;SDS011;11382;48.086;11.632;2022-12-18T05:12:10;53.58;;;24.70;;
22429;SDS011;11382;48.086;11.632;2022-12-18T05:14:38;57.63;;;25.67;;
22429;SDS011;11382;48.086;11.632;2022-12-18T05:17:10;50.17;;;24.25;;
22429;SDS011;11382;48.086;11.632;2022-12-18T05:19:51;58.00;;;26.02;;
22429;SDS011;11382;48.086;11.632;2022-12-18T05:22:27;54.70;;;25.77;;
22429;SDS011;11382;48.086;11.632;2022-12-18T05:24:58;58.40;;;25.40;;
22429;SDS011;11382;48.086;11.632;2022-12-18T05:27:28;50.58;;;23.85;;
22429;SDS011;11382;48.086;11.632;2022-12-18T05:29:56;52.47;;;23.38;;
22429;SDS011;11382;48.086;11.632;2022-12-18T05:32:26;53.70;;;23.35;;
22429;SDS011;11382;48.086;11.632;2022-12-18T05:34:55;44.65;;;21.95;;
22429;SDS011;11382;48.086;11.632;2022-12-18T05:37:28;54.13;;;23.48;;
22429;SDS011;11382;48.086;11.632;2022-12-18T05:39:57;48.63;;;23.92;;
22429;SDS011;11382;48.086;11.632;2022-12-18T05:42:29;50.17;;;23.55;;
22429;SDS011;11382;48.086;11.632;2022-12-18T05:44:59;50.60;;;24.15;;
22429;SDS011;11382;48.086;11.632;2022-12-18T05:47:32;55.33;;;24.73;;
22429;SDS011;11382;48.086;11.632;2022-12-18T05:50:07;50.55;;;24.42;;
22429;SDS011;11382;48.086;11.632;2022-12-18T05:52:38;51.42;;;25.20;;
22429;SDS011;11382;48.086;11.632;2022-12-18T05:55:07;56.67;;;25.77;;
22429;SDS011;11382;48.086;11.632;2022-12-18T05:57:40;51.55;;;23.83;;
22429;SDS011;11382;48.086;11.632;2022-12-18T06:00:10;54.10;;;24.80;;
22429;SDS011;11382;48.086;11.632;2022-12-18T06:02:42;49.63;;;23.23;;
22429;SDS011;11382;48.086;11.632;2022-12-18T06:05:15;44.55;;;22.50;;
22429;SDS011;11382;48.086;11.632;2022-12-18T06:07:44;52.67;;;23.95;;
22429;SDS011;11382;48.086;11.632;2022-12-18T06:10:15;52.22;;;25.58;;
22429;SDS011;11382;48.086;11.632;2022-12-18T06:12:43;54.67;;;25.27;;
22429;SDS011;11382;48.086;11.632;2022-12-18T06:15:12;51.53;;;24.00;;
22429;SDS011;11382;48.086;11.632;2022-12-18T06:17:42;50.67;;;24.65;;
22429;SDS011;11382;48.086;11.632;2022-12-18T06:20:12;52.15;;;24.63;;
22429;SDS011;11382;48.086;11.632;2022-12-18T06:22:43;52.78;;;24.73;;
22429;SDS011;11382;48.086;11.632;2022-12-18T06:25:13;51.85;;;25.40;;
22429;SDS011;11382;48.086;11.632;2022-12-18T06:27:42;54.97;;;25.02;;
22429;SDS011;11382;48.086;11.632;2022-12-18T06:30:13;56.85;;;26.58;;
22429;SDS011;11382;48.086;11.632;2022-12-18T06:32:47;48.50;;;24.55;;
22429;SDS011;11382;48.086;11.632;2022-12-18T06:35:22;50.75;;;22.85;;
22429;SDS011;11382;48.086;11.632;2022-12-18T06:37:53;54.63;;;25.67;;
22429;SDS011;11382;48.086;11.632;2022-12-18T06:40:23;52.17;;;23.85;;
22429;SDS011;11382;48.086;11.632;2022-12-18T06:42:55;58.72;;;25.58;;
22429;SDS011;11382;48.086;11.632;2022-12-18T06:45:38;53.73;;;24.63;;
22429;SDS011;11382;48.086;11.632;2022-12-18T06:48:06;52.70;;;24.13;;
22429;SDS011;11382;48.086;11.632;2022-12-18T06:50:35;51.35;;;23.88;;
22429;SDS011;11382;48.086;11.632;2022-12-18T06:53:04;53.65;;;24.70;;
22429;SDS011;11382;48.086;11.632;2022-12-18T06:55:33;54.78;;;24.70;;
22429;SDS011;11382;48.086;11.632;2022-12-18T06:58:03;50.83;;;23.95;;
22429;SDS011;11382;48.086;11.632;2022-12-18T07:00:31;47.85;;;24.77;;
22429;SDS011;11382;48.086;11.632;2022-12-18T07:02:59;49.70;;;23.98;;
22429;SDS011;11382;48.086;11.632;2022-12-18T07:05:28;57.65;;;25.27;;
22429;SDS011;11382;48.086;11.632;2022-12-18T07:08:02;53.20;;;24.38;;
22429;SDS011;11382;48.086;11.632;2022-12-18T07:10:32;54.50;;;25.48;;
22429;SDS011;11382;48.086;11.632;2022-12-18T07:13:00;48.72;;;23.27;;
22429;SDS011;11382;48.086;11.632;2022-12-18T07:15:28;51.13;;;24.42;;
22429;SDS011;11382;48.086;11.632;2022-12-18T07:17:58;49.88;;;23.67;;
22429;SDS011;11382;48.086;11.632;2022-12-18T07:20:27;50.92;;;24.02;;
22429;SDS011;11382;48.086;11.632;2022-12-18T07:22:58;55.55;;;24.40;;
22429;SDS011;11382;48.086;11.632;2022-12-18T07:25:34;50.90;;;23.13;;
22429;SDS011;11382;48.086;11.632;2022-12-18T07:28:03;50.50;;;23.73;;
22429;SDS011;11382;48.086;11.632;2022-12-18T07:30:31;50.70;;;23.92;;
22429;SDS011;11382;48.086;11.632;2022-12-18T07:32:59;53.97;;;24.95;;
22429;SDS011;11382;48.086;11.632;2022-12-18T07:35:28;51.05;;;24.67;;
22429;SDS011;11382;48.086;11.632;2022-12-18T07:37:56;48.47;;;23.23;;
22429;SDS011;11382;48.086;11.632;2022-12-18T07:40:24;46.22;;;22.42;;
22429;SDS011;11382;48.086;11.632;2022-12-18T07:42:54;49.78;;;23.73;;
22429;SDS011;11382;48.086;11.632;2022-12-18T07:45:22;49.33;;;23.55;;
22429;SDS011;11382;48.086;11.632;2022-12-18T07:47:50;51.72;;;23.88;;
22429;SDS011;11382;48.086;11.632;2022-12-18T07:50:19;49.85;;;22.58;;
22429;SDS011;11382;48.086;11.632;2022-12-18T07:52:47;48.60;;;23.48;;
22429;SDS011;11382;48.086;11.632;2022-12-18T07:55:15;50.25;;;23.42;;
22429;SDS011;11382;48.086;11.632;2022-12-18T07:57:46;51.13;;;23.75;;
22429;SDS011;11382;48.086;11.632;2022-12-18T08:00:22;50.30;;;24.80;;
22429;SDS011;11382;48.086;11.632;2022-12-18T08:02:51;51.15;;;23.58;;
22429;SDS011;11382;48.086;11.632;2022-12-18T08:05:19;49.42;;;23.55;;
22429;SDS011;11382;48.086;11.632;2022-12-18T08:07:48;44.97;;;22.15;;
22429;SDS011;11382;48.086;11.632;2022-12-18T08:10:16;47.10;;;22.63;;
22429;SDS011;11382;48.086;11.632;2022-12-18T08:12:48;46.67;;;22.05;;
22429;SDS011;11382;48.086;11.632;2022-12-18T08:15:18;50.75;;;23.02;;
22429;SDS011;11382;48.086;11.632;2022-12-18T08:17:47;44.95;;;22.33;;
22429;SDS011;11382;48.086;11.632;2022-12-18T08:20:15;45.10;;;21.65;;
22429;SDS011;11382;48.086;11.632;2022-12-18T08:22:44;46.38;;;21.40;;
22429;SDS011;11382;48.086;11.632;2022-12-18T08:25:12;48.00;;;22.83;;
22429;SDS011;11382;48.086;11.632;2022-12-18T08:27:40;47.42;;;23.30;;
22429;SDS011;11382;48.086;11.632;2022-12-18T08:30:09;46.30;;;21.70;;
22429;SDS011;11382;48.086;11.632;2022-12-18T08:32:39;45.17;;;23.50;;
22429;SDS011;11382;48.086;11.632;2022-12-18T08:35:09;43.55;;;21.77;;
22429;SDS011;11382;48.086;11.632;2022-12-18T08:37:38;45.25;;;22.27;;
22429;SDS011;11382;48.086;11.632;2022-12-18T08:40:08;43.47;;;21.05;;
22429;SDS011;11382;48.086;11.632;2022-12-18T08:42:37;42.58;;;21.73;;
22429;SDS011;11382;48.086;11.632;2022-12-18T08:45:23;42.72;;;21.35;;
22429;SDS011;11382;48.086;11.632;2022-12-18T08:47:52;45.33;;;20.83;;
22429;SDS011;11382;48.086;11.632;2022-12-18T08:50:22;44.88;;;20.50;;
22429;SDS011;11382;48.086;11.632;2022-12-18T08:52:52;43.83;;;20.23;;
22429;SDS011;11382;48.086;11.632;2022-12-18T08:55:20;43.05;;;20.80;;
22429;SDS011;11382;48.086;11.632;2022-12-18T08:57:48;48.13;;;21.70;;
22429;SDS011;11382;48.086;11.632;2022-12-18T09:00:16;43.40;;;22.15;;
22429;SDS011;11382;48.086;11.632;2022-12-18T09:02:45;47.38;;;21.02;;
22429;SDS011;11382;48.086;11.632;2022-12-18T09:05:15;47.38;;;22.38;;
22429;SDS011;11382;48.086;11.632;2022-12-18T09:07:45;45.53;;;22.40;;
22429;SDS011;11382;48.086;11.632;2022-12-18T09:10:13;46.17;;;21.27;;
22429;SDS011;11382;48.086;11.632;2022-12-18T09:12:42;47.38;;;21.95;;
22429;SDS011;11382;48.086;11.632;2022-12-18T09:15:13;41.53;;;19.58;;
22429;SDS011;11382;48.086;11.632;2022-12-18T09:17:42;44.95;;;21.13;;
22429;SDS011;11382;48.086;11.632;2022-12-18T09:20:14;45.47;;;21.15;;
22429;SDS011;11382;48.086;11.632;2022-12-18T09:22:44;42.53;;;20.50;;
22429;SDS011;11382;48.086;11.632;2022-12-18T09:25:16;45.60;;;20.00;;
22429;SDS011;11382;48.086;11.632;2022-12-18T09:27:46;42.05;;;19.90;;
22429;SDS011;11382;48.086;11.632;2022-12-18T09:30:16;38.38;;;19.25;;
22429;SDS011;11382;48.086;11.632;2022-12-18T09:32:44;38.30;;;19.35;;
22429;SDS011;11382;48.086;11.632;2022-12-18T09:35:13;41.42;;;20.08;;
22429;SDS011;11382;48.086;11.632;2022-12-18T09:37:43;46.70;;;22.00;;
22429;SDS011;11382;48.086;11.632;2022-12-18T09:40:14;49.58;;;22.65;;
22429;SDS011;11382;48.086;11.632;2022-12-18T09:42:46;46.20;;;22.27;;
22429;SDS011;11382;48.086;11.632;2022-12-18T09:45:18;42.78;;;20.27;;
22429;SDS011;11382;48.086;11.632;2022-12-18T09:47:49;42.80;;;21.65;;
22429;SDS011;11382;48.086;11.632;2022-12-18T09:50:23;47.92;;;22.02;;
22429;SDS011;11382;48.086;11.632;2022-12-18T09:53:02;46.88;;;22.38;;
22429;SDS011;11382;48.086;11.632;2022-12-18T09:55:37;51.20;;;22.88;;
22429;SDS011;11382;48.086;11.632;2022-12-18T09:58:14;50.53;;;22.48;;
22429;SDS011;11382;48.086;11.632;2022-12-18T10:00:47;48.03;;;22.38;;
22429;SDS011;11382;48.086;11.632;2022-12-18T10:03:15;46.63;;;22.35;;
22429;SDS011;11382;48.086;11.632;2022-12-18T10:05:46;43.83;;;20.25;;
22429;SDS011;11382;48.086;11.632;2022-12-18T10:08:29;44.43;;;21.30;;
22429;SDS011;11382;48.086;11.632;2022-12-18T10:11:15;45.20;;;21.25;;
22429;SDS011;11382;48.086;11.632;2022-12-18T10:13:59;47.17;;;21.60;;
22429;SDS011;11382;48.086;11.632;2022-12-18T10:16:34;47.05;;;22.85;;
22429;SDS011;11382;48.086;11.632;2022-12-18T10:19:21;43.17;;;20.77;;
22429;SDS011;11382;48.086;11.632;2022-12-18T10:22:01;42.13;;;19.95;;
22429;SDS011;11382;48.086;11.632;2022-12-18T10:24:44;40.90;;;20.35;;
22429;SDS011;11382;48.086;11.632;2022-12-18T10:27:18;38.25;;;19.33;;
22429;SDS011;11382;48.086;11.632;2022-12-18T10:29:50;40.20;;;17.63;;
22429;SDS011;11382;48.086;11.632;2022-12-18T10:32:22;44.33;;;21.08;;
22429;SDS011;11382;48.086;11.632;2022-12-18T10:34:52;45.28;;;20.95;;
22429;SDS011;11382;48.086;11.632;2022-12-18T10:37:27;49.10;;;20.80;;
22429;SDS011;11382;48.086;11.632;2022-12-18T10:40:09;46.58;;;22.70;;
22429;SDS011;11382;48.086;11.632;2022-12-18T10:42:49;42.30;;;21.10;;
22429;SDS011;11382;48.086;11.632;2022-12-18T10:45:34;41.42;;;19.95;;
22429;SDS011;11382;48.086;11.632;2022-12-18T10:48:03;39.95;;;19.15;;
22429;SDS011;11382;48.086;11.632;2022-12-18T10:50:32;41.33;;;19.25;;
22429;SDS011;11382;48.086;11.632;2022-12-18T10:53:26;30.50;;;15.32;;
22429;SDS011;11382;48.086;11.632;2022-12-18T10:55:57;36.55;;;19.15;;
22429;SDS011;11382;48.086;11.632;2022-12-18T10:58:31;40.42;;;18.90;;
22429;SDS011;11382;48.086;11.632;2022-12-18T11:01:04;36.38;;;18.35;;
22429;SDS011;11382;48.086;11.632;2022-12-18T11:03:39;39.90;;;19.25;;
22429;SDS011;11382;48.086;11.632;2022-12-18T11:06:10;44.15;;;20.75;;
22429;SDS011;11382;48.086;11.632;2022-12-18T11:08:40;37.95;;;18.52;;
22429;SDS011;11382;48.086;11.632;2022-12-18T11:11:17;39.28;;;19.58;;
22429;SDS011;11382;48.086;11.632;2022-12-18T11:13:52;40.50;;;19.38;;
22429;SDS011;11382;48.086;11.632;2022-12-18T11:16:27;40.85;;;18.63;;
22429;SDS011;11382;48.086;11.632;2022-12-18T11:19:18;38.92;;;18.80;;
22429;SDS011;11382;48.086;11.632;2022-12-18T11:21:58;39.25;;;18.73;;
22429;SDS011;11382;48.086;11.632;2022-12-18T11:24:30;39.00;;;18.55;;
22429;SDS011;11382;48.086;11.632;2022-12-18T11:27:02;42.45;;;19.05;;
22429;SDS011;11382;48.086;11.632;2022-12-18T11:29:39;40.28;;;18.70;;
22429;SDS011;11382;48.086;11.632;2022-12-18T11:32:18;38.08;;;19.08;;
22429;SDS011;11382;48.086;11.632;2022-12-18T11:34:57;36.20;;;17.77;;
22429;SDS011;11382;48.086;11.632;2022-12-18T11:37:33;34.33;;;17.95;;
22429;SDS011;11382;48.086;11.632;2022-12-18T11:40:03;36.90;;;17.42;;
22429;SDS011;11382;48.086;11.632;2022-12-18T11:42:41;37.00;;;18.60;;
22429;SDS011;11382;48.086;11.632;2022-12-18T11:45:24;35.70;;;18.48;;
22429;SDS011;11382;48.086;11.632;2022-12-18T11:47:57;41.38;;;18.60;;
22429;SDS011;11382;48.086;11.632;2022-12-18T11:50:30;34.60;;;17.85;;
22429;SDS011;11382;48.086;11.632;2022-12-18T11:53:09;37.50;;;17.85;;
22429;SDS011;11382;48.086;11.632;2022-12-18T11:55:40;43.40;;;20.17;;
22429;SDS011;11382;48.086;11.632;2022-12-18T11:58:18;37.38;;;17.67;;
22429;SDS011;11382;48.086;11.632;2022-12-18T12:01:06;40.25;;;18.58;;
22429;SDS011;11382;48.086;11.632;2022-12-18T12:03:49;40.05;;;19.70;;
22429;SDS011;11382;48.086;11.632;2022-12-18T12:06:28;40.55;;;19.27;;
22429;SDS011;11382;48.086;11.632;2022-12-18T12:09:07;44.10;;;19.92;;
22429;SDS011;11382;48.086;11.632;2022-12-18T12:11:44;35.85;;;18.85;;
22429;SDS011;11382;48.086;11.632;2022-12-18T12:14:29;36.30;;;18.17;;
22429;SDS011;11382;48.086;11.632;2022-12-18T12:17:15;39.40;;;18.02;;
22429;SDS011;11382;48.086;11.632;2022-12-18T12:19:52;38.42;;;17.65;;
22429;SDS011;11382;48.086;11.632;2022-12-18T12:22:31;36.13;;;17.27;;
22429;SDS011;11382;48.086;11.632;2022-12-18T12:28:06;35.00;;;18.45;;
22429;SDS011;11382;48.086;11.632;2022-12-18T12:30:51;33.10;;;17.58;;
22429;SDS011;11382;48.086;11.632;2022-12-18T12:33:29;31.95;;;16.75;;
22429;SDS011;11382;48.086;11.632;2022-12-18T12:36:09;26.73;;;13.35;;
22429;SDS011;11382;48.086;11.632;2022-12-18T12:38:51;36.13;;;17.30;;
22429;SDS011;11382;48.086;11.632;2022-12-18T12:41:25;34.13;;;17.27;;
22429;SDS011;11382;48.086;11.632;2022-12-18T12:44:17;36.75;;;18.23;;
22429;SDS011;11382;48.086;11.632;2022-12-18T12:46:51;36.92;;;18.40;;
22429;SDS011;11382;48.086;11.632;2022-12-18T12:49:26;38.13;;;18.85;;
22429;SDS011;11382;48.086;11.632;2022-12-18T12:52:07;40.33;;;20.98;;
22429;SDS011;11382;48.086;11.632;2022-12-18T12:54:45;38.40;;;18.67;;
22429;SDS011;11382;48.086;11.632;2022-12-18T12:57:26;36.95;;;17.75;;
22429;SDS011;11382;48.086;11.632;2022-12-18T13:00:03;36.42;;;17.48;;
22429;SDS011;11382;48.086;11.632;2022-12-18T13:02:39;34.90;;;17.88;;
22429;SDS011;11382;48.086;11.632;2022-12-18T13:05:21;27.58;;;13.88;;
22429;SDS011;11382;48.086;11.632;2022-12-18T13:07:56;39.20;;;17.75;;
22429;SDS011;11382;48.086;11.632;2022-12-18T13:10:31;42.25;;;19.08;;
22429;SDS011;11382;48.086;11.632;2022-12-18T13:13:04;38.25;;;18.92;;
22429;SDS011;11382;48.086;11.632;2022-12-18T13:15:37;39.22;;;18.80;;
22429;SDS011;11382;48.086;11.632;2022-12-18T13:18:19;29.48;;;15.25;;
22429;SDS011;11382;48.086;11.632;2022-12-18T13:20:50;41.88;;;20.00;;
22429;SDS011;11382;48.086;11.632;2022-12-18T13:23:42;43.85;;;19.50;;
22429;SDS011;11382;48.086;11.632;2022-12-18T13:28:59;39.05;;;19.33;;
22429;SDS011;11382;48.086;11.632;2022-12-18T13:34:49;37.53;;;17.65;;
22429;SDS011;11382;48.086;11.632;2022-12-18T13:37:56;40.88;;;19.00;;
22429;SDS011;11382;48.086;11.632;2022-12-18T13:43:29;36.75;;;17.42;;
22429;SDS011;11382;48.086;11.632;2022-12-18T13:48:53;38.63;;;18.05;;
22429;SDS011;11382;48.086;11.632;2022-12-18T13:51:25;37.10;;;18.47;;
22429;SDS011;11382;48.086;11.632;2022-12-18T13:53:55;39.15;;;18.90;;
22429;SDS011;11382;48.086;11.632;2022-12-18T13:56:26;36.35;;;18.05;;
22429;SDS011;11382;48.086;11.632;2022-12-18T13:59:17;38.40;;;17.83;;
22429;SDS011;11382;48.086;11.632;2022-12-18T14:01:51;36.00;;;17.88;;
22429;SDS011;11382;48.086;11.632;2022-12-18T14:04:26;39.90;;;17.92;;
22429;SDS011;11382;48.086;11.632;2022-12-18T14:06:57;42.35;;;19.73;;
22429;SDS011;11382;48.086;11.632;2022-12-18T14:09:31;35.85;;;18.48;;
22429;SDS011;11382;48.086;11.632;2022-12-18T14:12:06;39.30;;;18.92;;
22429;SDS011;11382;48.086;11.632;2022-12-18T14:17:27;42.30;;;19.45;;
22429;SDS011;11382;48.086;11.632;2022-12-18T14:19:56;43.63;;;19.95;;
22429;SDS011;11382;48.086;11.632;2022-12-18T14:22:28;42.33;;;20.23;;
22429;SDS011;11382;48.086;11.632;2022-12-18T14:25:14;46.80;;;21.52;;
22429;SDS011;11382;48.086;11.632;2022-12-18T14:27:45;44.22;;;20.25;;
22429;SDS011;11382;48.086;11.632;2022-12-18T14:30:27;51.53;;;23.23;;
22429;SDS011;11382;48.086;11.632;2022-12-18T14:33:00;45.35;;;22.38;;
22429;SDS011;11382;48.086;11.632;2022-12-18T14:35:29;43.15;;;20.85;;
22429;SDS011;11382;48.086;11.632;2022-12-18T14:38:15;41.80;;;20.08;;
22429;SDS011;11382;48.086;11.632;2022-12-18T14:40:51;45.30;;;22.15;;
22429;SDS011;11382;48.086;11.632;2022-12-18T14:43:22;45.58;;;23.10;;
22429;SDS011;11382;48.086;11.632;2022-12-18T14:45:50;42.78;;;22.27;;
22429;SDS011;11382;48.086;11.632;2022-12-18T14:48:20;49.00;;;23.48;;
22429;SDS011;11382;48.086;11.632;2022-12-18T14:50:56;45.17;;;22.45;;
22429;SDS011;11382;48.086;11.632;2022-12-18T14:53:35;46.92;;;23.05;;
22429;SDS011;11382;48.086;11.632;2022-12-18T14:56:12;48.03;;;23.42;;
22429;SDS011;11382;48.086;11.632;2022-12-18T14:58:49;46.50;;;23.52;;
22429;SDS011;11382;48.086;11.632;2022-12-18T15:01:22;41.20;;;19.83;;
22429;SDS011;11382;48.086;11.632;2022-12-18T15:03:54;45.60;;;22.98;;
22429;SDS011;11382;48.086;11.632;2022-12-18T15:06:27;45.38;;;22.83;;
22429;SDS011;11382;48.086;11.632;2022-12-18T15:09:02;38.55;;;20.90;;
22429;SDS011;11382;48.086;11.632;2022-12-18T15:11:34;50.95;;;21.92;;